KALB/ALB METAR and TAF weather

Enter ICAO airport designator
Station Type Date Time Source
KALB METAR 2020/02/20 23:51 UTC NOAA

KALB 202351Z 30011KT 10SM FEW050 BKN060 M05/M16 A3046 RMK AO2 SLP319 60000 T10501161 11006 21050 53018


Station Type Date Time Source
KALB Decoded METAR 2020/02/20 23:51 UTC NOAA

ALBANY INTERNATIONAL AIRPORT, NY, United States (KALB) 42-45N 73-48W
Feb 20, 2020 - 06:51 PM EST / 2020.02.20 2351 UTC
Wind: from the WNW (300 degrees) at 13 MPH (11 KT):0
Visibility: 10 mile(s):0
Sky conditions: mostly cloudy
Temperature: 23.0 F (-5.0 C)
Windchill: 10 F (-12 C):1
Dew Point: 3.0 F (-16.1 C)
Relative Humidity: 41%
Pressure (altimeter): 30.46 in. Hg (1031 hPa)
Pressure tendency: 0.05 inches (1.8 hPa) higher than three hours ago
ob: KALB 202351Z 30011KT 10SM FEW050 BKN060 M05/M16 A3046 RMK AO2 SLP319 60000 T10501161 11006 21050 53018
cycle: 0

Station Type Date Time Source
KALB TAF 2020/02/20 20:24 UTC NOAA

TAF
AMD KALB 202022Z 2020/2118 29015G25KT P6SM BKN050
FM210100 32007KT P6SM FEW030
FM210800 31004KT P6SM SKC
FM211700 22007KT P6SM SKC

Example: see airport list